Terminal Aerodrome Forecast
Issued by NWS

Home | Current Version | Previous Version | Text Only | Print | Product List | Glossary On
Versions: 1 2 3 4 5 6 7 8 9 10 11 12 13 14
000
FTUS43 KILX 012300
TAFCMI
TAF
KCMI 012333Z 0200/0224 17015KT P6SM SCT250
     FM020200 18015KT P6SM BKN250 WS020/20045KT
     FM020800 19015KT P6SM VCTS BKN050CB WS020/20045KT
     FM021600 22018G28KT 6SM -SHRA VCTS BKN035CB=

USA.gov is the U.S. government's official web portal to all federal, state and local government web resources and services.